Time;durP1;ratioP1;P1;durP2;ratioP2;P2;SDS_P1;SDS_P2;PMS_P1;PMS_P2;Temp;Humidity;BMP_temperature;BMP_pressure;BME280_temperature;BME280_humidity;BME280_pressure;Samples;Min_cycle;Max_cycle;Signal;HPM_P1;HPM_P2
2022/04/26 03:37:46;;;;;;;1.10;1.00;;;;;;;17.86;43.03;101596.66;5116724;27;20076;-50
2022/04/26 03:40:11;;;;;;;1.38;1.27;;;;;;;17.86;42.77;101593.97;5107037;27;20075;-47
2022/04/26 03:42:37;;;;;;;1.40;1.30;;;;;;;17.85;43.01;101595.81;5125748;27;20030;-48
2022/04/26 03:45:02;;;;;;;1.10;1.00;;;;;;;17.85;42.79;101603.88;5144740;27;20026;-44
2022/04/26 03:47:28;;;;;;;1.15;1.00;;;;;;;17.85;42.75;101611.94;5109391;27;20140;-45
2022/04/26 03:49:53;;;;;;;1.23;1.10;;;;;;;17.85;42.71;101606.56;5126052;27;20026;-45
2022/04/26 03:52:20;;;;;;;1.23;1.02;;;;;;;17.85;43.01;101605.72;5143897;27;20084;-46
2022/04/26 03:54:45;;;;;;;0.80;0.80;;;;;;;17.84;42.81;101612.94;5126430;27;20030;-47
2022/04/26 03:57:10;;;;;;;1.30;1.05;;;;;;;17.85;42.94;101611.09;5125935;28;20086;-47
2022/04/26 03:59:36;;;;;;;1.20;1.10;;;;;;;17.81;42.94;101615.94;5125984;27;20055;-45
2022/04/26 04:02:01;;;;;;;0.90;0.90;;;;;;;17.83;42.72;101616.63;5144263;27;20034;-44
2022/04/26 04:04:26;;;;;;;1.10;1.00;;;;;;;17.83;42.98;101608.53;5125925;28;20476;-44
2022/04/26 04:06:52;;;;;;;1.05;0.90;;;;;;;17.83;42.96;101610.38;5144080;27;20106;-43
2022/04/26 04:09:17;;;;;;;0.98;0.82;;;;;;;17.82;42.95;101617.63;5144087;28;20030;-45
2022/04/26 04:11:42;;;;;;;0.90;0.90;;;;;;;17.82;42.87;101616.78;5109085;28;20057;-48
2022/04/26 04:14:08;;;;;;;1.30;1.20;;;;;;;17.82;42.91;101614.06;5108471;28;20023;-44
2022/04/26 04:16:33;;;;;;;1.00;1.00;;;;;;;17.69;42.76;101599.06;5144368;28;20026;-45
2022/04/26 04:21:42;;;;;;;1.02;0.93;;;;;;;17.80;42.92;101626.81;5114422;28;20038;-46
2022/04/26 04:24:07;;;;;;;1.10;0.90;;;;;;;17.79;42.52;101625.97;5144068;28;20027;-46
2022/04/26 04:26:33;;;;;;;1.00;0.90;;;;;;;17.67;42.85;101610.94;5144256;28;20042;-45
2022/04/26 04:28:58;;;;;;;1.00;0.90;;;;;;;17.66;42.85;101609.25;5134900;28;20023;-44
2022/04/26 04:31:23;;;;;;;1.15;1.05;;;;;;;17.78;42.53;101634.19;5109279;28;20016;-47
2022/04/26 04:33:48;;;;;;;1.27;1.13;;;;;;;17.78;42.98;101635.03;5116847;28;20016;-45
2022/04/26 04:36:15;;;;;;;1.23;1.10;;;;;;;17.78;42.78;101634.19;5140943;28;20024;-46
2022/04/26 04:38:40;;;;;;;1.30;1.00;;;;;;;17.77;42.84;101637.88;5121069;28;20072;-44
2022/04/26 04:41:06;;;;;;;0.88;0.88;;;;;;;17.77;42.87;101637.88;5105355;28;20047;-47
2022/04/26 04:43:32;;;;;;;1.20;1.10;;;;;;;17.65;42.64;101631.75;5140685;28;20054;-47
2022/04/26 04:45:57;;;;;;;1.02;1.02;;;;;;;17.64;42.95;101638.13;5130444;28;20023;-43
2022/04/26 04:48:22;;;;;;;1.17;1.10;;;;;;;17.76;42.86;101650.47;5111497;28;20023;-45
2022/04/26 04:50:47;;;;;;;0.93;0.93;;;;;;;17.76;42.71;101663.09;5120084;28;20059;-44
2022/04/26 04:53:13;;;;;;;1.30;1.20;;;;;;;17.74;43.02;101664.06;5116448;28;20058;-47
2022/04/26 04:55:39;;;;;;;1.20;1.10;;;;;;;17.76;42.85;101665.78;5125464;28;20019;-44
2022/04/26 04:58:05;;;;;;;0.90;0.90;;;;;;;17.63;43.11;101658.81;5142990;28;20016;-45
2022/04/26 05:00:30;;;;;;;1.27;1.13;;;;;;;17.74;42.74;101669.44;5135456;28;20030;-45
2022/04/26 05:02:56;;;;;;;1.10;1.00;;;;;;;17.72;43.19;101668.69;5143645;28;20514;-46
2022/04/26 05:05:22;;;;;;;1.20;1.10;;;;;;;17.74;42.85;101666.75;5123342;28;20026;-48
2022/04/26 05:07:47;;;;;;;1.65;1.10;;;;;;;17.73;43.33;101672.25;5108137;28;20114;-43
2022/04/26 05:10:13;;;;;;;1.85;1.05;;;;;;;17.73;42.99;101680.31;5107026;28;20020;-45
2022/04/26 05:12:38;;;;;;;1.27;0.98;;;;;;;17.73;43.02;101685.69;5139967;28;20043;-45
2022/04/26 05:15:04;;;;;;;1.17;0.95;;;;;;;17.72;43.13;101681.31;5140457;27;20023;-45
2022/04/26 05:17:29;;;;;;;0.90;0.90;;;;;;;17.71;43.25;101676.91;5127682;27;20027;-47
2022/04/26 05:19:55;;;;;;;1.38;1.10;;;;;;;17.61;43.16;101665.31;5123028;27;20039;-44
2022/04/26 05:22:21;;;;;;;1.58;1.20;;;;;;;17.68;43.18;101686.13;5102498;27;20090;-47
2022/04/26 05:24:58;;;;;;;1.50;1.00;;;;;;;17.71;42.98;101693.03;5140115;27;20031;-48
2022/04/26 05:27:25;;;;;;;1.17;1.08;;;;;;;17.71;43.34;101695.72;5144189;27;20023;-45
2022/04/26 05:29:51;;;;;;;1.60;1.10;;;;;;;17.71;43.47;101696.59;5128493;27;20027;-45
2022/04/26 05:32:23;;;;;;;1.25;1.15;;;;;;;17.69;43.35;101701.25;5147071;27;20034;-45
2022/04/26 05:34:55;;;;;;;1.10;1.00;;;;;;;17.59;43.26;101686.97;5146834;27;20081;-44
2022/04/26 05:37:20;;;;;;;1.40;1.10;;;;;;;17.70;43.11;101699.41;5105442;27;20089;-44
2022/04/26 05:39:46;;;;;;;0.95;0.95;;;;;;;17.60;43.47;101691.34;5126623;27;20089;-54
2022/04/26 05:42:12;;;;;;;1.25;1.10;;;;;;;17.69;43.24;101711.16;5138564;27;20046;-53
2022/04/26 05:44:38;;;;;;;1.00;1.00;;;;;;;17.70;43.33;101710.16;5124205;27;20110;-50
2022/04/26 05:47:06;;;;;;;1.10;1.00;;;;;;;17.71;43.32;101718.13;5126151;27;20048;-46
2022/04/26 05:49:31;;;;;;;1.10;0.90;;;;;;;17.60;43.55;101704.78;5122621;28;20031;-51
2022/04/26 05:51:56;;;;;;;2.58;1.15;;;;;;;17.60;43.43;101701.25;5123209;27;20046;-51
2022/04/26 05:54:22;;;;;;;1.30;1.10;;;;;;;17.61;43.61;101703.78;5143905;27;20068;-54
2022/04/26 05:56:48;;;;;;;1.25;1.15;;;;;;;17.70;43.75;101721.78;5144727;27;20427;-54
2022/04/26 05:59:13;;;;;;;1.00;1.00;;;;;;;17.62;43.91;101707.34;5140880;27;20024;-52
2022/04/26 06:01:38;;;;;;;1.02;1.00;;;;;;;17.72;43.59;101721.66;5125913;27;20026;-54
2022/04/26 06:04:05;;;;;;;0.98;0.88;;;;;;;17.70;43.77;101723.63;5144448;27;20046;-53
2022/04/26 06:06:30;;;;;;;1.10;1.00;;;;;;;17.70;43.79;101723.63;5145052;27;20079;-49
2022/04/26 06:08:56;;;;;;;2.15;1.30;;;;;;;17.71;43.77;101728.00;5125371;27;20152;-51
2022/04/26 06:11:21;;;;;;;1.20;1.10;;;;;;;17.58;43.86;101709.44;5144372;27;20031;-51
2022/04/26 06:13:46;;;;;;;1.38;1.02;;;;;;;17.61;43.69;101706.47;5124575;27;20031;-46
2022/04/26 06:16:12;;;;;;;1.10;1.05;;;;;;;17.71;43.70;101728.00;5122844;27;20050;-50
2022/04/26 06:18:37;;;;;;;1.08;0.98;;;;;;;17.71;43.95;101734.25;5125966;27;20519;-51
2022/04/26 06:21:02;;;;;;;1.17;1.05;;;;;;;17.70;44.00;101737.91;5144585;27;20033;-49
2022/04/26 06:23:27;;;;;;;1.20;1.10;;;;;;;17.69;43.77;101730.00;5124494;27;20059;-48
2022/04/26 06:25:53;;;;;;;1.35;1.10;;;;;;;17.58;43.88;101716.66;5143482;27;20023;-54
2022/04/26 06:28:18;;;;;;;1.10;1.00;;;;;;;17.70;44.34;101737.91;5123048;27;20031;-53
2022/04/26 06:30:43;;;;;;;1.30;1.20;;;;;;;17.65;43.78;101720.50;5143903;27;20027;-52
2022/04/26 06:33:08;;;;;;;1.33;0.82;;;;;;;17.59;44.02;101713.00;5142647;27;20026;-52
2022/04/26 06:35:34;;;;;;;1.73;1.15;;;;;;;17.70;44.02;101743.28;5140722;27;20035;-51
2022/04/26 06:37:59;;;;;;;1.08;1.00;;;;;;;17.70;43.95;101745.13;5143107;27;20030;-49
2022/04/26 06:40:27;;;;;;;1.77;1.60;;;;;;;17.71;43.86;101745.00;5124833;27;20114;-49
2022/04/26 06:42:52;;;;;;;1.75;1.10;;;;;;;17.70;44.01;101747.81;5124581;27;20541;-45
2022/04/26 06:45:18;;;;;;;1.30;1.20;;;;;;;17.70;44.06;101745.13;5142802;27;20041;-48
2022/04/26 06:47:44;;;;;;;2.22;1.40;;;;;;;17.70;44.08;101750.50;5143424;27;20086;-49
2022/04/26 06:50:09;;;;;;;1.42;1.08;;;;;;;17.70;43.94;101754.03;5125321;27;20023;-48
2022/04/26 06:52:34;;;;;;;1.25;0.90;;;;;;;17.59;43.76;101735.38;5142984;27;20054;-46
2022/04/26 06:55:00;;;;;;;2.28;1.48;;;;;;;17.69;44.02;101757.72;5143759;27;20106;-47
2022/04/26 06:57:25;;;;;;;1.50;1.33;;;;;;;17.69;43.87;101755.03;5142660;27;20314;-45
2022/04/26 06:59:50;;;;;;;1.35;1.20;;;;;;;17.59;43.93;101738.06;5142795;27;20474;-47
2022/04/26 07:02:15;;;;;;;1.55;1.20;;;;;;;17.70;43.99;101755.88;5142911;27;20043;-53
2022/04/26 07:04:41;;;;;;;1.08;0.98;;;;;;;17.70;43.83;101755.88;5104673;27;20089;-47
2022/04/26 07:07:06;;;;;;;1.38;1.27;;;;;;;17.69;43.75;101760.41;5122329;27;20113;-54
2022/04/26 07:09:31;;;;;;;1.13;1.02;;;;;;;17.70;44.06;101758.56;5142527;27;20046;-55
2022/04/26 07:11:57;;;;;;;1.13;1.02;;;;;;;17.60;44.13;101753.19;5142751;27;20031;-52
2022/04/26 07:14:22;;;;;;;1.10;1.00;;;;;;;17.70;44.10;101758.56;5106349;27;20106;-53
2022/04/26 07:16:49;;;;;;;0.90;0.90;;;;;;;17.70;44.19;101764.81;5124593;27;20075;-52
2022/04/26 07:19:15;;;;;;;0.80;0.80;;;;;;;17.60;44.18;101749.66;5143123;27;20030;-46
2022/04/26 07:21:44;;;;;;;1.50;1.15;;;;;;;17.71;44.00;101765.66;5124504;27;20027;-50
2022/04/26 07:24:10;;;;;;;0.82;0.82;;;;;;;17.63;44.01;101746.69;5124229;27;20051;-47
2022/04/26 07:26:35;;;;;;;1.20;1.00;;;;;;;17.69;44.21;101756.88;5125163;27;20042;-46
2022/04/26 07:29:01;;;;;;;1.23;1.13;;;;;;;17.61;43.80;101745.97;5123814;27;20027;-46
2022/04/26 07:31:26;;;;;;;1.25;1.15;;;;;;;17.71;44.08;101758.47;5140781;27;20031;-55
2022/04/26 07:36:35;;;;;;;1.02;1.00;;;;;;;17.71;43.87;101771.03;5141459;27;20068;-48
2022/04/26 07:39:01;;;;;;;0.98;0.98;;;;;;;17.71;43.99;101766.53;5142000;27;20027;-43
2022/04/26 07:41:26;;;;;;;2.92;1.40;;;;;;;17.72;44.20;101767.38;5142194;27;20047;-52
2022/04/26 07:43:52;;;;;;;1.92;0.90;;;;;;;17.71;43.92;101761.16;5122688;27;20082;-50
2022/04/26 07:46:17;;;;;;;1.45;1.10;;;;;;;17.73;44.08;101769.91;5142496;27;20019;-49
2022/04/26 07:48:43;;;;;;;1.17;1.08;;;;;;;17.74;43.96;101768.94;5124271;27;20030;-51
2022/04/26 07:51:09;;;;;;;2.08;1.30;;;;;;;17.64;44.03;101745.72;5123848;27;20051;-54
2022/04/26 07:53:34;;;;;;;0.90;0.88;;;;;;;17.64;44.02;101751.94;5123785;28;20087;-53
2022/04/26 07:56:00;;;;;;;1.45;1.00;;;;;;;17.76;44.04;101771.50;5123748;27;20023;-56
2022/04/26 07:58:25;;;;;;;1.05;1.00;;;;;;;17.77;44.35;101773.22;5138348;27;20028;-53
2022/04/26 08:00:50;;;;;;;1.15;0.98;;;;;;;17.67;44.14;101762.41;5139994;27;20031;-50
2022/04/26 08:03:16;;;;;;;1.20;1.10;;;;;;;17.76;44.02;101776.91;5104948;28;20023;-55
2022/04/26 08:05:42;;;;;;;1.25;1.10;;;;;;;17.80;44.21;101791.78;5104113;27;20051;-54
2022/04/26 08:08:07;;;;;;;5.25;1.30;;;;;;;17.79;44.41;101789.19;5142412;27;20019;-45
2022/04/26 08:10:34;;;;;;;1.90;1.10;;;;;;;17.80;43.97;101786.38;5122733;28;20031;-47
2022/04/26 08:12:59;;;;;;;1.00;1.00;;;;;;;17.82;44.02;101789.78;5141071;28;21072;-48
2022/04/26 08:15:24;;;;;;;1.20;1.10;;;;;;;17.71;44.26;101774.59;5122975;28;20046;-48
2022/04/26 08:17:50;;;;;;;1.55;1.17;;;;;;;17.82;44.19;101797.84;5142209;28;20038;-49
2022/04/26 08:20:16;;;;;;;1.25;0.95;;;;;;;17.83;44.06;101807.59;5122836;28;20030;-45
2022/04/26 08:22:41;;;;;;;1.20;1.00;;;;;;;17.85;44.19;101810.19;5122865;27;20030;-44
2022/04/26 08:27:50;;;;;;;1.10;1.00;;;;;;;17.85;44.07;101810.19;5139988;28;20034;-56
2022/04/26 08:30:16;;;;;;;1.08;0.90;;;;;;;17.84;44.06;101824.59;5142119;28;20075;-52
2022/04/26 08:32:47;;;;;;;1.30;1.20;;;;;;;17.86;43.99;101822.63;5123821;28;20048;-47
2022/04/26 08:35:16;;;;;;;2.15;1.25;;;;;;;17.86;43.97;101828.00;5143751;28;20031;-50
2022/04/26 08:37:43;;;;;;;2.20;1.20;;;;;;;17.86;43.99;101831.56;5104180;28;20023;-49
2022/04/26 08:40:09;;;;;;;1.15;1.00;;;;;;;17.77;44.03;101821.63;5143335;28;20054;-46
2022/04/26 08:42:35;;;;;;;1.30;1.20;;;;;;;17.90;43.93;101832.13;5142863;28;20046;-46
2022/04/26 08:45:03;;;;;;;1.13;1.00;;;;;;;17.82;44.23;101815.81;5128437;28;20034;-45
2022/04/26 08:52:58;;;;;;;1.98;1.13;;;;;;;17.92;44.11;101836.34;5147171;27;20065;-46
2022/04/26 08:55:23;;;;;;;1.10;1.00;;;;;;;17.93;44.14;101843.47;5148210;27;20076;-47
2022/04/26 08:57:48;;;;;;;1.17;0.95;;;;;;;17.83;44.07;101823.75;5147584;27;20421;-47
2022/04/26 09:00:14;;;;;;;1.30;1.10;;;;;;;17.94;43.96;101841.63;5147018;27;20031;-45
2022/04/26 09:02:40;;;;;;;1.52;1.02;;;;;;;17.90;43.90;101848.25;5130228;27;20111;-48
2022/04/26 09:05:13;;;;;;;1.83;1.02;;;;;;;17.94;43.89;101850.53;5127187;28;20493;-46
2022/04/26 09:07:39;;;;;;;1.20;1.00;;;;;;;17.83;43.88;101841.72;5142434;27;20020;-45
2022/04/26 09:10:15;;;;;;;1.30;1.20;;;;;;;17.82;43.81;101830.13;5142721;27;20122;-46
2022/04/26 09:13:04;;;;;;;1.67;1.20;;;;;;;17.82;43.95;101840.88;5108066;28;20083;-48
2022/04/26 09:15:48;;;;;;;1.83;1.20;;;;;;;17.91;43.77;101860.72;5109184;28;20047;-47
2022/04/26 09:18:32;;;;;;;1.23;1.13;;;;;;;17.83;43.89;101847.09;5125771;28;20402;-48
2022/04/26 09:20:58;;;;;;;1.02;1.00;;;;;;;17.90;43.88;101861.72;5091799;28;20073;-45
2022/04/26 09:23:26;;;;;;;1.23;1.08;;;;;;;17.90;43.84;101859.88;5125929;28;20015;-48
2022/04/26 09:25:55;;;;;;;1.17;0.90;;;;;;;17.90;43.72;101854.50;5108833;28;20487;-46
2022/04/26 09:28:29;;;;;;;1.17;1.08;;;;;;;17.90;43.52;101865.25;5126181;28;20398;-46
2022/04/26 09:30:55;;;;;;;1.45;1.15;;;;;;;17.90;43.75;101865.25;5143352;27;20034;-46
2022/04/26 09:33:32;;;;;;;1.35;1.25;;;;;;;17.89;43.63;101852.81;5142615;27;20024;-49
2022/04/26 09:36:02;;;;;;;2.15;1.60;;;;;;;17.90;43.73;101865.25;5126670;28;20041;-47
2022/04/26 09:38:31;;;;;;;5.95;1.48;;;;;;;17.90;43.69;101864.41;5114550;27;20040;-51
2022/04/26 09:40:59;;;;;;;1.17;0.80;;;;;;;17.92;43.84;101871.34;5128894;27;20149;-48
2022/04/26 09:43:25;;;;;;;1.55;1.00;;;;;;;17.91;43.75;101872.34;5110819;27;20027;-48
2022/04/26 09:45:55;;;;;;;1.15;0.80;;;;;;;17.92;43.51;101870.47;5138297;27;20026;-46
2022/04/26 09:48:25;;;;;;;1.52;1.25;;;;;;;17.92;43.73;101876.72;5146887;27;20087;-46
2022/04/26 09:50:50;;;;;;;0.82;0.73;;;;;;;17.91;43.85;101880.41;5147023;27;20027;-45
2022/04/26 09:53:15;;;;;;;1.27;1.08;;;;;;;17.92;43.57;101879.41;5146376;27;20053;-46
2022/04/26 09:55:41;;;;;;;0.98;0.77;;;;;;;17.93;43.82;101877.59;5146883;27;20029;-44
2022/04/26 09:58:07;;;;;;;0.85;0.85;;;;;;;17.92;43.78;101882.09;5146318;27;20034;-47
2022/04/26 10:00:33;;;;;;;0.77;0.77;;;;;;;17.81;43.68;101858.03;5143855;27;20046;-48
2022/04/26 10:03:02;;;;;;;1.10;1.00;;;;;;;17.95;43.63;101891.75;5128186;27;20027;-46
2022/04/26 10:05:30;;;;;;;1.05;0.77;;;;;;;17.93;43.43;101886.50;5128309;27;20047;-49
2022/04/26 10:07:56;;;;;;;1.42;1.10;;;;;;;17.93;43.50;101886.50;5127141;27;20854;-49
2022/04/26 10:10:23;;;;;;;1.17;1.00;;;;;;;17.94;43.49;101882.81;5128153;27;20046;-47
2022/04/26 10:15:34;;;;;;;1.55;1.10;;;;;;;17.93;43.55;101893.75;5121834;27;20045;-50
2022/04/26 10:18:00;;;;;;;1.20;1.10;;;;;;;17.84;43.59;101875.72;5125399;27;20033;-53
2022/04/26 10:20:45;;;;;;;1.20;1.10;;;;;;;17.95;43.73;101880.97;5125439;27;20042;-56
2022/04/26 10:23:11;;;;;;;1.95;1.10;;;;;;;17.94;43.53;101884.66;5140899;27;20035;-54
2022/04/26 10:25:36;;;;;;;1.27;0.90;;;;;;;17.94;43.75;101882.81;5143582;27;20043;-53
2022/04/26 10:28:32;;;;;;;1.58;1.20;;;;;;;17.95;43.63;101884.53;5107671;27;20042;-52
2022/04/26 10:30:58;;;;;;;1.20;1.10;;;;;;;17.96;43.66;101896.13;5100460;27;20124;-52
2022/04/26 10:33:42;;;;;;;1.73;1.17;;;;;;;17.98;43.60;101896.84;5118985;28;20667;-54
2022/04/26 10:36:29;;;;;;;1.10;1.00;;;;;;;17.99;43.81;101890.47;5135535;27;20083;-52
2022/04/26 10:39:12;;;;;;;1.27;0.90;;;;;;;18.00;43.84;101894.88;5124152;27;20019;-54
2022/04/26 10:41:45;;;;;;;1.20;0.90;;;;;;;18.01;43.80;101893.91;5141515;27;20077;-54
2022/04/26 10:44:22;;;;;;;1.20;1.10;;;;;;;18.02;43.69;101900.97;5124068;27;20019;-53
2022/04/26 10:46:55;;;;;;;1.27;0.90;;;;;;;18.03;43.86;101901.81;5142742;27;20049;-56
2022/04/26 10:49:22;;;;;;;1.67;1.20;;;;;;;18.02;43.84;101897.44;5143599;27;20035;-56
2022/04/26 10:51:47;;;;;;;1.23;0.95;;;;;;;18.02;43.79;101892.06;5143627;27;20107;-55
2022/04/26 10:54:12;;;;;;;1.05;0.90;;;;;;;18.04;43.57;101882.00;5139851;27;20696;-54
2022/04/26 10:56:38;;;;;;;1.75;1.00;;;;;;;18.05;43.89;101903.38;5107787;27;20024;-58
2022/04/26 10:59:13;;;;;;;1.15;0.98;;;;;;;18.07;43.94;101901.41;5142832;27;20027;-52
2022/04/26 11:01:39;;;;;;;2.10;0.90;;;;;;;18.07;43.96;101905.94;5123061;27;20027;-54
2022/04/26 11:04:05;;;;;;;0.85;0.85;;;;;;;18.07;44.01;101905.94;5124467;27;20056;-57
2022/04/26 11:06:38;;;;;;;1.35;0.80;;;;;;;18.09;43.68;101904.78;5143731;27;20479;-49
2022/04/26 11:09:11;;;;;;;1.27;0.93;;;;;;;18.10;43.96;101903.81;5139607;27;20054;-53
2022/04/26 11:11:46;;;;;;;1.05;0.90;;;;;;;18.01;43.98;101893.00;5143334;27;20049;-56
2022/04/26 11:14:11;;;;;;;2.15;1.23;;;;;;;18.10;44.08;101906.50;5123476;27;20102;-48
2022/04/26 11:16:37;;;;;;;1.60;1.50;;;;;;;18.11;43.79;101915.44;5124536;27;20054;-45
2022/04/26 11:19:02;;;;;;;1.15;1.00;;;;;;;18.11;43.91;101905.53;5120911;27;20031;-49
2022/04/26 11:21:28;;;;;;;1.30;1.10;;;;;;;18.13;43.99;101908.91;5107704;27;20022;-44
2022/04/26 11:29:35;;;;;;;1.67;0.98;;;;;;;18.16;44.21;101918.56;5126783;27;20113;-48
2022/04/26 11:32:00;;;;;;;2.17;1.20;;;;;;;18.00;44.11;101886.78;5124198;27;20023;-48
2022/04/26 11:34:42;;;;;;;1.20;1.02;;;;;;;18.21;43.99;101929.75;5122756;27;20062;-50
2022/04/26 11:37:10;;;;;;;1.20;0.90;;;;;;;18.21;43.99;101918.97;5153989;27;20050;-45
2022/04/26 11:39:40;;;;;;;2.47;1.20;;;;;;;18.23;44.04;101922.41;5100847;27;20117;-47
2022/04/26 11:42:07;;;;;;;2.35;1.00;;;;;;;18.23;44.28;101931.31;5141677;27;20047;-47
2022/04/26 11:44:32;;;;;;;1.02;0.90;;;;;;;18.26;44.38;101929.31;5123312;27;20476;-47
2022/04/26 11:46:59;;;;;;;1.10;1.00;;;;;;;18.26;44.55;101922.09;5142725;27;20048;-45
2022/04/26 11:49:40;;;;;;;1.55;1.00;;;;;;;18.29;44.34;101931.75;5106565;27;20035;-46
2022/04/26 11:52:06;;;;;;;1.15;1.00;;;;;;;18.28;44.38;101930.91;5122026;27;20027;-50
2022/04/26 11:54:36;;;;;;;1.05;0.88;;;;;;;18.30;44.41;101934.28;5120296;27;20023;-45
2022/04/26 11:57:02;;;;;;;1.83;1.23;;;;;;;18.30;44.47;101928.06;5143963;27;20023;-44
2022/04/26 11:59:28;;;;;;;1.13;1.00;;;;;;;18.20;44.36;101915.44;5120452;27;20027;-47
2022/04/26 12:01:53;;;;;;;1.67;0.90;;;;;;;18.32;44.71;101939.56;5139301;27;20034;-44
2022/04/26 12:04:19;;;;;;;1.00;0.90;;;;;;;18.30;44.58;101930.75;5121292;27;20027;-47
2022/04/26 12:06:44;;;;;;;2.38;1.42;;;;;;;18.35;44.45;101941.94;5139406;27;20030;-56
2022/04/26 12:09:12;;;;;;;0.98;0.98;;;;;;;18.36;44.33;101947.22;5140876;27;20027;-52
2022/04/26 12:11:40;;;;;;;1.23;1.05;;;;;;;18.28;44.55;101922.81;5107848;28;20030;-51
2022/04/26 12:14:07;;;;;;;0.88;0.80;;;;;;;18.35;44.36;101936.56;5105558;28;20113;-55
2022/04/26 12:16:41;;;;;;;1.83;1.25;;;;;;;18.45;44.46;101940.13;5141374;28;20126;-46
2022/04/26 12:19:06;;;;;;;1.58;1.02;;;;;;;18.37;44.76;101931.91;5141831;28;20022;-53
2022/04/26 12:21:52;;;;;;;2.13;1.08;;;;;;;18.52;44.26;101948.47;5142618;28;20027;-51
2022/04/26 12:24:31;;;;;;;2.72;1.08;;;;;;;18.54;44.26;101939.28;5123383;27;20030;-53
2022/04/26 12:27:01;;;;;;;1.00;0.90;;;;;;;18.45;44.27;101922.13;5146931;27;20673;-54
2022/04/26 12:29:29;;;;;;;1.27;1.10;;;;;;;18.59;44.43;101937.00;5127547;27;20038;-52
2022/04/26 12:31:55;;;;;;;1.20;1.00;;;;;;;18.59;44.30;101937.00;5143276;27;20057;-52
2022/04/26 12:34:21;;;;;;;1.10;1.00;;;;;;;18.64;44.01;101931.19;5109937;27;20023;-53
2022/04/26 12:36:59;;;;;;;1.35;1.25;;;;;;;18.65;44.14;101936.47;5146421;27;20027;-53
2022/04/26 12:39:40;;;;;;;1.95;1.23;;;;;;;18.64;44.58;101939.28;5127114;27;20027;-53
2022/04/26 12:42:07;;;;;;;1.33;1.10;;;;;;;18.65;44.48;101941.84;5124242;27;20122;-50
2022/04/26 12:44:33;;;;;;;1.65;1.23;;;;;;;18.68;44.06;101938.00;5122913;27;20023;-54
2022/04/26 12:52:47;;;;;;;1.02;0.90;;;;;;;18.74;44.35;101940.19;5142991;27;20034;-50
2022/04/26 12:55:34;;;;;;;2.05;0.95;;;;;;;18.72;44.18;101934.91;5142083;27;20061;-54
2022/04/26 12:58:01;;;;;;;1.33;1.23;;;;;;;18.73;44.63;101935.75;5143592;27;20027;-54
2022/04/26 13:00:27;;;;;;;1.42;1.20;;;;;;;18.62;44.53;101917.88;5143692;27;20038;-49
2022/04/26 13:02:55;;;;;;;1.30;1.10;;;;;;;18.77;44.15;101933.63;5127161;27;20031;-51
2022/04/26 13:05:21;;;;;;;1.27;0.95;;;;;;;18.78;44.38;101938.91;5126397;27;20042;-51
2022/04/26 13:07:47;;;;;;;1.55;0.95;;;;;;;18.81;44.47;101933.19;5126692;27;20026;-51
2022/04/26 13:10:14;;;;;;;1.02;0.82;;;;;;;18.84;44.56;101934.78;5145636;27;20101;-49
2022/04/26 13:12:39;;;;;;;1.77;1.00;;;;;;;18.87;44.45;101938.03;5145033;27;20501;-51
2022/04/26 13:15:08;;;;;;;1.35;1.05;;;;;;;18.77;44.34;101920.16;5141991;27;20023;-51
2022/04/26 13:17:33;;;;;;;1.30;0.98;;;;;;;18.77;44.26;101923.69;5125166;27;20022;-52
2022/04/26 13:19:59;;;;;;;1.00;0.90;;;;;;;18.87;44.42;101931.81;5145189;27;20023;-57
2022/04/26 13:22:24;;;;;;;1.00;0.90;;;;;;;18.88;44.45;101944.28;5127294;27;20134;-55
2022/04/26 13:24:51;;;;;;;1.10;1.00;;;;;;;18.79;44.66;101928.97;5125283;27;20167;-56
2022/04/26 13:27:18;;;;;;;1.33;1.17;;;;;;;18.87;44.42;101935.34;5125353;27;20137;-52
2022/04/26 13:29:43;;;;;;;1.75;0.90;;;;;;;18.88;44.53;101928.94;5145023;27;20158;-55
2022/04/26 13:32:08;;;;;;;1.45;1.10;;;;;;;18.85;44.66;101923.84;5143798;27;20387;-44
2022/04/26 13:34:33;;;;;;;1.48;1.00;;;;;;;18.89;44.72;101927.94;5119653;27;20055;-54
2022/04/26 13:36:59;;;;;;;1.38;1.02;;;;;;;18.89;44.54;101927.94;5126448;27;20052;-54
2022/04/26 13:39:24;;;;;;;1.20;1.00;;;;;;;18.90;44.40;101929.69;5144468;27;20030;-53
2022/04/26 13:41:53;;;;;;;1.92;1.27;;;;;;;18.79;44.60;101907.41;5145008;27;20050;-51
2022/04/26 13:44:21;;;;;;;1.13;1.00;;;;;;;18.88;44.52;101928.94;5124781;27;20038;-55
2022/04/26 13:46:47;;;;;;;1.08;1.00;;;;;;;18.86;44.57;101919.28;5107045;27;20038;-52
2022/04/26 13:49:12;;;;;;;1.15;1.05;;;;;;;18.77;44.72;101906.69;5126481;27;20454;-54
2022/04/26 13:51:38;;;;;;;1.00;1.00;;;;;;;18.76;45.06;101903.16;5126334;27;20023;-54
2022/04/26 13:54:04;;;;;;;1.30;1.20;;;;;;;18.77;45.08;101901.31;5124834;27;20067;-53
2022/04/26 13:56:29;;;;;;;1.00;0.90;;;;;;;18.87;44.94;101921.88;5144698;27;20164;-55
2022/04/26 13:58:54;;;;;;;1.05;0.82;;;;;;;18.77;44.86;101909.38;5125514;27;20487;-45
2022/04/26 14:01:20;;;;;;;1.00;0.95;;;;;;;18.86;44.83;101922.00;5125833;27;20035;-54
2022/04/26 14:03:45;;;;;;;1.00;0.90;;;;;;;18.86;44.63;101925.56;5143828;27;20035;-54
2022/04/26 14:06:11;;;;;;;1.25;1.10;;;;;;;18.86;45.06;101919.28;5144636;27;20076;-54
2022/04/26 14:08:37;;;;;;;1.02;0.93;;;;;;;18.77;44.86;101912.94;5143916;27;20031;-48
2022/04/26 14:11:02;;;;;;;1.40;1.30;;;;;;;18.77;45.08;101898.63;5109410;27;20023;-50
2022/04/26 14:13:28;;;;;;;1.92;1.00;;;;;;;18.88;45.06;101925.41;5124963;27;20027;-44
2022/04/26 14:24:06;;;;;;;1.20;1.10;;;;;;;18.87;45.10;101927.25;5139578;27;20033;-54
2022/04/26 14:26:31;;;;;;;1.55;1.33;;;;;;;18.88;45.08;101928.09;5144587;27;20023;-53
2022/04/26 14:28:56;;;;;;;1.38;1.17;;;;;;;18.89;45.25;101927.09;5107723;27;20030;-52
2022/04/26 14:31:22;;;;;;;1.05;0.95;;;;;;;18.80;45.16;101907.25;5125724;27;20019;-52
2022/04/26 14:33:47;;;;;;;1.42;0.98;;;;;;;18.91;45.41;101927.81;5143863;27;20031;-50
2022/04/26 14:36:12;;;;;;;1.48;1.00;;;;;;;18.84;45.40;101915.91;5144056;27;20023;-55
2022/04/26 14:38:37;;;;;;;1.60;1.00;;;;;;;18.91;45.16;101931.38;5107593;27;20007;-57
2022/04/26 14:41:03;;;;;;;1.40;0.90;;;;;;;18.93;45.60;101937.44;5143766;27;20047;-56
2022/04/26 14:43:28;;;;;;;1.35;1.10;;;;;;;18.94;45.60;101927.50;5142885;27;20477;-56
2022/04/26 14:45:55;;;;;;;1.33;1.02;;;;;;;18.95;45.49;101934.63;5125152;27;20031;-54
2022/04/26 14:48:20;;;;;;;1.98;1.10;;;;;;;18.96;45.32;101936.31;5123794;27;20035;-54
2022/04/26 14:50:45;;;;;;;1.00;0.90;;;;;;;18.96;45.68;101931.78;5125377;27;20027;-55
2022/04/26 14:53:11;;;;;;;1.27;1.10;;;;;;;18.89;45.56;101913.63;5124851;27;20026;-56
2022/04/26 14:55:36;;;;;;;1.25;1.08;;;;;;;18.99;45.69;101925.25;5143245;27;20507;-54
2022/04/26 14:58:02;;;;;;;2.42;0.90;;;;;;;19.01;45.75;101938.59;5122595;27;20108;-54
2022/04/26 15:00:27;;;;;;;1.20;1.08;;;;;;;19.02;45.56;101938.44;5124323;27;20398;-56
2022/04/26 15:02:52;;;;;;;1.15;0.90;;;;;;;19.03;45.46;101940.16;5140604;27;20035;-55
2022/04/26 15:05:18;;;;;;;2.00;1.20;;;;;;;19.05;45.73;101942.69;5106347;27;20122;-57
2022/04/26 15:10:29;;;;;;;1.08;0.98;;;;;;;19.06;45.60;101937.16;5126997;27;20892;-55
2022/04/26 15:18:22;;;;;;;1.42;1.00;;;;;;;19.08;45.72;101937.03;5141284;27;20098;-58
2022/04/26 15:20:52;;;;;;;1.35;1.10;;;;;;;19.09;45.85;101938.72;5142933;27;20031;-53
2022/04/26 15:23:18;;;;;;;1.23;0.90;;;;;;;19.10;45.83;101941.25;5139698;27;20019;-55
2022/04/26 15:25:52;;;;;;;0.70;0.70;;;;;;;19.01;45.62;101934.03;5142510;27;20034;-54
2022/04/26 15:28:21;;;;;;;0.85;0.85;;;;;;;19.12;45.98;101939.28;5139953;27;20028;-56
2022/04/26 15:30:48;;;;;;;1.48;0.77;;;;;;;19.12;45.92;101946.53;5123773;27;20031;-54
2022/04/26 15:33:13;;;;;;;1.13;0.88;;;;;;;19.03;45.90;101931.19;5124914;27;20023;-54
2022/04/26 15:35:38;;;;;;;1.15;1.05;;;;;;;19.06;45.63;101936.31;5123466;27;20039;-52
2022/04/26 15:38:07;;;;;;;1.13;0.88;;;;;;;19.14;46.09;101945.38;5106174;27;20027;-53
2022/04/26 15:40:34;;;;;;;1.30;1.00;;;;;;;19.13;45.87;101949.06;5142588;27;20168;-53
2022/04/26 15:42:59;;;;;;;1.40;0.98;;;;;;;19.16;45.95;101946.09;5123835;27;20035;-52
2022/04/26 15:45:24;;;;;;;1.00;0.90;;;;;;;19.16;45.92;101951.47;5142160;27;20042;-44